createdAt,value
2023-05-06T00:01:22.656Z,1.60
2023-05-06T00:03:49.898Z,1.60
2023-05-06T00:06:17.158Z,1.70
2023-05-06T00:08:44.362Z,1.80
2023-05-06T00:11:11.376Z,1.50
2023-05-06T00:13:38.222Z,1.83
2023-05-06T00:16:05.736Z,1.60
2023-05-06T00:18:32.876Z,1.40
2023-05-06T00:20:59.970Z,1.57
2023-05-06T00:23:27.127Z,1.90
2023-05-06T00:25:54.856Z,1.60
2023-05-06T00:28:22.225Z,2.25
2023-05-06T00:30:49.313Z,2.10
2023-05-06T00:33:16.396Z,1.50
2023-05-06T00:35:43.422Z,1.75
2023-05-06T00:38:14.858Z,1.60
2023-05-06T00:40:42.004Z,1.65
2023-05-06T00:43:09.272Z,1.60
2023-05-06T00:45:37.099Z,2.00
2023-05-06T00:48:05.250Z,1.63
2023-05-06T00:50:33.736Z,1.90
2023-05-06T00:53:03.860Z,1.80
2023-05-06T00:55:31.858Z,1.73
2023-05-06T00:57:59.323Z,1.60
2023-05-06T01:00:26.417Z,1.70
2023-05-06T01:02:53.938Z,1.60
2023-05-06T01:05:23.343Z,1.60
2023-05-06T01:08:07.068Z,1.70
2023-05-06T01:10:52.699Z,1.60
2023-05-06T01:13:49.023Z,1.55
2023-05-06T01:16:20.386Z,1.70
2023-05-06T01:18:49.874Z,1.30
2023-05-06T01:21:19.050Z,1.90
2023-05-06T01:23:54.140Z,1.80
2023-05-06T01:26:21.277Z,1.70
2023-05-06T01:28:48.622Z,1.80
2023-05-06T01:31:26.233Z,1.70
2023-05-06T01:34:11.414Z,1.90
2023-05-06T01:36:38.356Z,1.80
2023-05-06T01:39:20.718Z,2.00
2023-05-06T01:41:50.274Z,2.08
2023-05-06T01:44:21.255Z,1.60
2023-05-06T01:46:50.000Z,1.60
2023-05-06T01:49:18.995Z,1.90
2023-05-06T01:51:50.525Z,1.48
2023-05-06T01:54:18.000Z,1.50
2023-05-06T01:56:45.388Z,1.90
2023-05-06T01:59:12.470Z,1.98
2023-05-06T02:01:39.718Z,2.10
2023-05-06T02:04:06.961Z,1.58
2023-05-06T02:06:34.231Z,1.60
2023-05-06T02:09:01.200Z,1.38
2023-05-06T02:11:28.199Z,1.50
2023-05-06T02:13:55.189Z,1.40
2023-05-06T02:16:22.318Z,1.30
2023-05-06T02:18:49.343Z,1.45
2023-05-06T02:21:16.314Z,1.30
2023-05-06T02:23:43.141Z,1.83
2023-05-06T02:26:10.149Z,1.40
2023-05-06T02:28:37.185Z,1.40
2023-05-06T02:31:04.253Z,1.40
2023-05-06T02:33:31.247Z,1.40
2023-05-06T02:35:58.208Z,1.45
2023-05-06T02:38:25.170Z,1.50
2023-05-06T02:40:52.147Z,1.35
2023-05-06T02:43:19.128Z,1.40
2023-05-06T02:45:46.082Z,1.30
2023-05-06T02:48:13.061Z,1.35
2023-05-06T02:50:40.087Z,1.70
2023-05-06T02:53:06.950Z,1.30
2023-05-06T02:55:33.878Z,1.50
2023-05-06T02:58:00.931Z,1.40
2023-05-06T03:00:27.975Z,1.30
2023-05-06T03:02:54.967Z,1.53
2023-05-06T03:05:22.042Z,1.38
2023-05-06T03:07:49.058Z,1.30
2023-05-06T03:10:16.071Z,1.30
2023-05-06T03:12:43.134Z,1.30
2023-05-06T03:15:10.738Z,1.30
2023-05-06T03:17:37.882Z,1.23
2023-05-06T03:20:06.436Z,1.52
2023-05-06T03:22:33.411Z,1.40
2023-05-06T03:25:00.309Z,1.45
2023-05-06T03:27:27.399Z,1.40
2023-05-06T03:29:54.436Z,1.30
2023-05-06T03:32:21.409Z,1.30
2023-05-06T03:34:48.493Z,1.42
2023-05-06T03:37:15.363Z,1.50
2023-05-06T03:39:42.290Z,1.37
2023-05-06T03:42:09.858Z,1.40
2023-05-06T03:44:36.989Z,1.38
2023-05-06T03:47:03.853Z,1.50
2023-05-06T03:49:30.742Z,1.50
2023-05-06T03:51:57.718Z,1.40
2023-05-06T03:54:24.661Z,1.50
2023-05-06T03:56:51.728Z,1.23
2023-05-06T03:59:18.692Z,1.23
2023-05-06T04:01:45.627Z,1.40
2023-05-06T04:04:12.810Z,1.30
2023-05-06T04:06:39.859Z,1.38
2023-05-06T04:09:06.868Z,1.30
2023-05-06T04:11:35.684Z,1.30
2023-05-06T04:14:02.672Z,1.30
2023-05-06T04:16:29.726Z,1.40
2023-05-06T04:18:57.286Z,1.40
2023-05-06T04:21:24.263Z,1.25
2023-05-06T04:23:51.424Z,1.35
2023-05-06T04:26:18.456Z,1.30
2023-05-06T04:28:45.482Z,1.20
2023-05-06T04:31:12.707Z,1.60
2023-05-06T04:33:39.702Z,1.42
2023-05-06T04:36:07.135Z,1.50
2023-05-06T04:38:34.201Z,1.52
2023-05-06T04:41:01.482Z,1.50
2023-05-06T04:43:28.512Z,1.35
2023-05-06T04:45:55.680Z,1.30
2023-05-06T04:48:23.172Z,1.38
2023-05-06T04:50:51.299Z,1.58
2023-05-06T04:53:18.446Z,1.30
2023-05-06T04:55:45.480Z,1.50
2023-05-06T04:58:12.365Z,1.25
2023-05-06T05:00:39.381Z,1.45
2023-05-06T05:03:06.669Z,1.50
2023-05-06T05:05:33.918Z,1.57
2023-05-06T05:08:00.838Z,1.40
2023-05-06T05:10:27.992Z,1.60
2023-05-06T05:12:54.958Z,1.42
2023-05-06T05:15:22.052Z,1.50
2023-05-06T05:17:50.730Z,1.50
2023-05-06T05:20:17.836Z,1.27
2023-05-06T05:22:44.883Z,1.13
2023-05-06T05:25:12.347Z,1.58
2023-05-06T05:27:39.669Z,1.52
2023-05-06T05:30:07.472Z,1.70
2023-05-06T05:32:37.726Z,1.30
2023-05-06T05:35:05.242Z,1.77
2023-05-06T05:37:32.298Z,1.50
2023-05-06T05:39:59.323Z,1.27
2023-05-06T05:42:29.441Z,1.37
2023-05-06T05:44:56.495Z,1.45
2023-05-06T05:47:23.661Z,1.40
2023-05-06T05:49:50.607Z,1.30
2023-05-06T05:52:19.597Z,1.30
2023-05-06T05:54:46.718Z,1.40
2023-05-06T05:57:14.926Z,1.30
2023-05-06T05:59:41.975Z,1.48
2023-05-06T06:02:09.124Z,1.30
2023-05-06T06:04:36.293Z,1.48
2023-05-06T06:07:03.422Z,1.60
2023-05-06T06:09:30.548Z,1.30
2023-05-06T06:11:57.501Z,2.03
2023-05-06T06:14:24.589Z,1.60
2023-05-06T06:16:51.914Z,1.40
2023-05-06T06:19:19.254Z,1.60
2023-05-06T06:21:46.300Z,1.50
2023-05-06T06:24:13.589Z,1.40
2023-05-06T06:26:40.520Z,2.38
2023-05-06T06:29:07.532Z,1.58
2023-05-06T06:31:35.133Z,1.63
2023-05-06T06:34:02.389Z,1.70
2023-05-06T06:36:29.485Z,1.60
2023-05-06T06:38:56.762Z,1.90
2023-05-06T06:41:23.863Z,1.52
2023-05-06T06:43:50.872Z,1.90
2023-05-06T06:46:18.057Z,1.60
2023-05-06T06:48:45.288Z,1.92
2023-05-06T06:51:12.349Z,1.83
2023-05-06T06:53:39.460Z,1.58
2023-05-06T06:56:10.902Z,1.60
2023-05-06T06:58:37.726Z,1.83
2023-05-06T07:01:04.937Z,1.70
2023-05-06T07:03:31.960Z,1.48
2023-05-06T07:05:59.030Z,1.73
2023-05-06T07:08:26.167Z,1.53
2023-05-06T07:10:53.186Z,1.70
2023-05-06T07:13:20.222Z,1.70
2023-05-06T07:15:47.413Z,1.52
2023-05-06T07:18:14.583Z,1.60
2023-05-06T07:20:41.728Z,1.50
2023-05-06T07:23:08.982Z,2.05
2023-05-06T07:25:42.107Z,2.10
2023-05-06T07:28:11.616Z,1.65
2023-05-06T07:30:39.427Z,1.80
2023-05-06T07:33:06.678Z,1.87
2023-05-06T07:35:34.318Z,1.60
2023-05-06T07:38:01.476Z,1.80
2023-05-06T07:40:28.338Z,1.77
2023-05-06T07:42:55.513Z,1.60
2023-05-06T07:45:24.840Z,1.60
2023-05-06T07:47:51.975Z,1.75
2023-05-06T07:50:19.337Z,2.13
2023-05-06T07:52:46.525Z,1.70
2023-05-06T07:55:13.755Z,1.80
2023-05-06T07:57:41.055Z,1.60
2023-05-06T08:00:08.549Z,1.60
2023-05-06T08:02:35.713Z,1.70
2023-05-06T08:05:03.049Z,1.70
2023-05-06T08:07:29.986Z,1.92
2023-05-06T08:09:56.925Z,2.17
2023-05-06T08:12:24.149Z,1.70
2023-05-06T08:14:51.319Z,2.00
2023-05-06T08:17:18.313Z,1.88
2023-05-06T08:19:45.548Z,1.90
2023-05-06T08:22:12.754Z,1.63
2023-05-06T08:24:39.916Z,1.80
2023-05-06T08:27:07.024Z,1.92
2023-05-06T08:29:34.125Z,2.13
2023-05-06T08:32:01.143Z,2.05
2023-05-06T08:34:28.364Z,2.00
2023-05-06T08:36:55.451Z,1.98
2023-05-06T08:39:22.695Z,1.80
2023-05-06T08:41:52.907Z,1.63
2023-05-06T08:44:21.184Z,2.92
2023-05-06T08:46:48.600Z,3.10
2023-05-06T08:49:16.199Z,1.90
2023-05-06T08:51:44.507Z,2.67
2023-05-06T08:54:15.451Z,1.67
2023-05-06T08:56:51.421Z,1.60
2023-05-06T08:59:26.163Z,1.60
2023-05-06T09:01:53.796Z,1.75
2023-05-06T09:04:21.118Z,2.00
2023-05-06T09:06:48.167Z,2.17
2023-05-06T09:09:15.474Z,2.10
2023-05-06T09:11:45.689Z,2.03
2023-05-06T09:14:15.668Z,1.80
2023-05-06T09:16:45.325Z,1.88
2023-05-06T09:19:13.499Z,1.90
2023-05-06T09:21:45.694Z,2.50
2023-05-06T09:24:15.483Z,2.93
2023-05-06T09:26:44.583Z,1.70
2023-05-06T09:29:15.366Z,2.33
2023-05-06T09:31:44.718Z,2.00
2023-05-06T09:34:12.764Z,2.03
2023-05-06T09:36:42.569Z,2.07
2023-05-06T09:39:10.250Z,2.40
2023-05-06T09:41:37.601Z,1.67
2023-05-06T09:44:05.310Z,1.90
2023-05-06T09:46:32.680Z,1.70
2023-05-06T09:48:59.779Z,1.60
2023-05-06T09:51:27.478Z,2.05
2023-05-06T09:53:56.021Z,2.20
2023-05-06T09:56:24.044Z,1.80
2023-05-06T09:58:53.152Z,2.00
2023-05-06T10:01:32.756Z,2.50
2023-05-06T10:04:08.863Z,2.63
2023-05-06T10:06:38.146Z,2.00
2023-05-06T10:09:07.129Z,2.03
2023-05-06T10:11:34.983Z,1.83
2023-05-06T10:14:03.005Z,1.80
2023-05-06T10:16:31.512Z,2.13
2023-05-06T10:19:00.356Z,1.98
2023-05-06T10:21:32.003Z,1.70
2023-05-06T10:24:07.042Z,1.80
2023-05-06T10:26:37.949Z,1.90
2023-05-06T10:29:10.797Z,2.08
2023-05-06T10:31:46.563Z,2.30
2023-05-06T10:34:23.080Z,1.73
2023-05-06T10:36:59.551Z,2.20
2023-05-06T10:39:27.614Z,1.80
2023-05-06T10:41:55.367Z,1.80
2023-05-06T10:45:00.264Z,2.53
2023-05-06T10:47:29.076Z,2.25
2023-05-06T10:50:24.252Z,2.05
2023-05-06T10:52:56.003Z,2.10
2023-05-06T10:55:31.934Z,1.80
2023-05-06T10:58:11.071Z,1.65
2023-05-06T11:00:38.639Z,1.60
2023-05-06T11:03:26.996Z,2.17
2023-05-06T11:05:54.341Z,2.60
2023-05-06T11:08:26.668Z,1.80
2023-05-06T11:10:54.479Z,1.80
2023-05-06T11:13:26.991Z,1.98
2023-05-06T11:15:55.861Z,1.92
2023-05-06T11:18:25.643Z,1.70
2023-05-06T11:21:12.897Z,2.20
2023-05-06T11:23:42.753Z,1.80
2023-05-06T11:26:10.876Z,1.92
2023-05-06T11:28:38.937Z,1.98
2023-05-06T11:31:06.706Z,1.80
2023-05-06T11:33:35.791Z,2.80
2023-05-06T11:36:05.358Z,2.00
2023-05-06T11:38:48.431Z,1.90
2023-05-06T11:41:16.710Z,2.53
2023-05-06T11:43:51.449Z,1.93
2023-05-06T11:46:23.137Z,2.30
2023-05-06T11:48:50.991Z,1.70
2023-05-06T11:51:24.555Z,2.00
2023-05-06T11:53:53.163Z,2.10
2023-05-06T11:56:20.116Z,1.80
2023-05-06T11:58:47.248Z,1.95
2023-05-06T12:01:14.177Z,1.75
2023-05-06T12:03:41.320Z,1.67
2023-05-06T12:06:08.359Z,1.80
2023-05-06T12:08:36.446Z,2.63
2023-05-06T12:11:09.311Z,2.22
2023-05-06T12:13:36.415Z,1.90
2023-05-06T12:16:05.607Z,1.75
2023-05-06T12:18:33.256Z,1.83
2023-05-06T12:21:03.334Z,1.60
2023-05-06T12:23:30.464Z,2.00
2023-05-06T12:26:07.517Z,2.38
2023-05-06T12:28:38.101Z,1.85
2023-05-06T12:42:05.471Z,1.70
2023-05-06T13:07:11.994Z,1.70
2023-05-06T13:09:39.045Z,2.08
2023-05-06T13:12:09.179Z,1.90
2023-05-06T13:14:38.386Z,1.57
2023-05-06T13:17:07.344Z,2.30
2023-05-06T13:19:34.378Z,2.10
2023-05-06T13:22:01.721Z,2.35
2023-05-06T13:24:29.390Z,1.90
2023-05-06T13:26:56.297Z,1.90
2023-05-06T13:29:23.437Z,1.88
2023-05-06T13:31:50.453Z,1.60
2023-05-06T13:34:17.298Z,1.77
2023-05-06T13:36:44.143Z,2.05
2023-05-06T13:39:11.191Z,1.80
2023-05-06T13:41:38.149Z,1.67
2023-05-06T13:44:05.307Z,1.98
2023-05-06T13:46:32.394Z,1.70
2023-05-06T13:48:59.262Z,1.90
2023-05-06T13:51:26.098Z,2.00
2023-05-06T13:53:53.065Z,2.20
2023-05-06T13:56:19.868Z,1.70
2023-05-06T13:58:46.743Z,1.98
2023-05-06T14:01:13.941Z,2.00
2023-05-06T14:03:40.820Z,1.67
2023-05-06T14:06:08.993Z,1.73
2023-05-06T14:08:35.969Z,1.80
2023-05-06T14:11:02.977Z,1.85
2023-05-06T14:13:31.993Z,2.05
2023-05-06T14:15:59.508Z,2.20
2023-05-06T14:18:30.666Z,2.30
2023-05-06T14:20:59.492Z,2.03
2023-05-06T14:23:26.438Z,2.30
2023-05-06T14:25:53.366Z,1.70
2023-05-06T14:28:20.448Z,2.40
2023-05-06T14:30:47.397Z,2.10
2023-05-06T14:33:14.420Z,1.88
2023-05-06T14:35:42.542Z,1.80
2023-05-06T14:38:10.597Z,2.00
2023-05-06T14:40:37.719Z,1.60
2023-05-06T14:43:05.182Z,3.15
2023-05-06T14:45:32.241Z,2.00
2023-05-06T14:47:59.204Z,2.22
2023-05-06T14:50:26.115Z,1.80
2023-05-06T14:52:53.189Z,1.73
2023-05-06T14:55:20.244Z,2.10
2023-05-06T14:57:47.263Z,2.38
2023-05-06T15:00:14.995Z,2.30
2023-05-06T15:02:42.100Z,2.00
2023-05-06T15:05:10.651Z,2.40
2023-05-06T15:07:38.222Z,2.25
2023-05-06T15:10:05.625Z,2.65
2023-05-06T15:12:33.736Z,2.88
2023-05-06T15:15:00.854Z,2.83
2023-05-06T15:17:27.799Z,2.40
2023-05-06T15:19:54.730Z,2.20
2023-05-06T15:22:21.860Z,2.90
2023-05-06T15:24:48.699Z,2.60
2023-05-06T15:27:15.635Z,2.50
2023-05-06T15:29:42.702Z,2.40
2023-05-06T15:32:09.728Z,2.70
2023-05-06T15:34:36.663Z,2.35
2023-05-06T15:37:05.446Z,2.40
2023-05-06T15:39:35.897Z,2.20
2023-05-06T15:42:05.867Z,2.43
2023-05-06T15:44:33.509Z,1.90
2023-05-06T15:47:00.442Z,2.42
2023-05-06T15:49:49.261Z,2.10
2023-05-06T15:52:14.400Z,1.88
2023-05-06T15:54:41.527Z,1.87
2023-05-06T15:57:08.471Z,2.17
2023-05-06T15:59:35.503Z,1.83
2023-05-06T16:04:32.503Z,2.00
2023-05-06T16:06:59.896Z,2.20
2023-05-06T16:09:26.853Z,1.92
2023-05-06T16:11:53.887Z,2.15
2023-05-06T16:14:21.054Z,2.13
2023-05-06T16:16:47.995Z,2.10
2023-05-06T16:19:14.864Z,2.07
2023-05-06T16:21:41.718Z,1.95
2023-05-06T16:24:09.039Z,2.25
2023-05-06T16:26:36.038Z,1.77
2023-05-06T16:29:02.962Z,1.92
2023-05-06T16:31:30.298Z,2.10
2023-05-06T16:33:57.167Z,2.03
2023-05-06T16:36:24.060Z,2.10
2023-05-06T16:38:51.550Z,2.03
2023-05-06T16:41:18.400Z,2.00
2023-05-06T16:43:45.210Z,2.00
2023-05-06T16:46:12.433Z,1.95
2023-05-06T16:48:39.413Z,1.88
2023-05-06T16:51:06.429Z,1.90
2023-05-06T16:53:33.460Z,2.00
2023-05-06T16:56:02.236Z,1.77
2023-05-06T16:58:29.498Z,1.90
2023-05-06T17:00:56.748Z,1.90
2023-05-06T17:03:23.776Z,2.38
2023-05-06T17:05:51.121Z,2.00
2023-05-06T17:08:18.820Z,1.60
2023-05-06T17:10:45.879Z,2.00
2023-05-06T17:13:12.865Z,2.17
2023-05-06T17:15:40.274Z,1.60
2023-05-06T17:18:09.990Z,1.63
2023-05-06T17:20:51.722Z,1.63
2023-05-06T17:23:22.868Z,1.80
2023-05-06T17:25:50.044Z,3.28
2023-05-06T17:28:18.499Z,2.17
2023-05-06T17:30:46.508Z,1.70
2023-05-06T17:33:13.676Z,1.80
2023-05-06T17:35:40.775Z,1.83
2023-05-06T17:38:07.961Z,2.45
2023-05-06T17:40:34.871Z,2.03
2023-05-06T17:43:01.949Z,1.83
2023-05-06T17:45:29.064Z,2.00
2023-05-06T17:47:56.593Z,2.20
2023-05-06T17:50:23.844Z,2.22
2023-05-06T17:52:50.733Z,2.20
2023-05-06T17:55:18.260Z,2.15
2023-05-06T17:57:45.129Z,1.80
2023-05-06T18:00:12.467Z,2.30
2023-05-06T18:02:39.448Z,2.42
2023-05-06T18:05:06.716Z,2.08
2023-05-06T18:07:35.413Z,2.00
2023-05-06T18:10:02.400Z,2.00
2023-05-06T18:12:29.178Z,1.80
2023-05-06T18:14:56.124Z,2.05
2023-05-06T18:17:23.079Z,1.50
2023-05-06T18:19:50.190Z,1.48
2023-05-06T18:22:17.193Z,1.57
2023-05-06T18:24:44.086Z,1.30
2023-05-06T18:27:11.228Z,1.50
2023-05-06T18:29:38.413Z,1.60
2023-05-06T18:32:05.504Z,1.65
2023-05-06T18:34:32.373Z,1.57
2023-05-06T18:36:59.335Z,1.52
2023-05-06T18:39:26.432Z,2.03
2023-05-06T18:41:53.307Z,1.50
2023-05-06T18:44:20.309Z,1.40
2023-05-06T18:46:49.715Z,1.20
2023-05-06T18:49:16.637Z,1.48
2023-05-06T18:51:43.646Z,1.77
2023-05-06T18:54:10.529Z,1.35
2023-05-06T18:56:37.624Z,1.75
2023-05-06T18:59:04.724Z,1.40
2023-05-06T19:01:31.682Z,1.50
2023-05-06T19:03:58.729Z,1.30
2023-05-06T19:06:25.744Z,1.23
2023-05-06T19:08:52.789Z,1.42
2023-05-06T19:11:19.763Z,1.20
2023-05-06T19:13:46.894Z,1.42
2023-05-06T19:16:14.031Z,1.05
2023-05-06T19:18:41.191Z,1.10
2023-05-06T19:21:12.354Z,1.00
2023-05-06T19:23:39.321Z,1.10
2023-05-06T19:26:06.964Z,0.80
2023-05-06T19:28:34.235Z,0.90
2023-05-06T19:31:01.894Z,0.85
2023-05-06T19:33:28.955Z,1.10
2023-05-06T19:35:56.206Z,0.93
2023-05-06T19:38:23.142Z,1.20
2023-05-06T19:40:50.048Z,1.20
2023-05-06T19:43:16.931Z,3.42
2023-05-06T19:45:44.132Z,2.10
2023-05-06T19:48:11.005Z,1.00
2023-05-06T19:50:37.917Z,1.35
2023-05-06T19:53:04.788Z,1.20
2023-05-06T19:55:32.092Z,1.10
2023-05-06T19:57:59.482Z,0.90
2023-05-06T20:00:26.562Z,0.90
2023-05-06T20:02:57.067Z,0.95
2023-05-06T20:05:27.804Z,0.90
2023-05-06T20:07:54.745Z,1.00
2023-05-06T20:10:24.243Z,0.90
2023-05-06T20:12:51.249Z,0.80
2023-05-06T20:15:18.415Z,1.17
2023-05-06T20:17:45.653Z,0.80
2023-05-06T20:20:21.863Z,0.70
2023-05-06T20:22:48.745Z,0.98
2023-05-06T20:25:17.332Z,1.40
2023-05-06T20:27:47.412Z,0.90
2023-05-06T20:30:14.401Z,1.40
2023-05-06T20:32:41.660Z,1.10
2023-05-06T20:35:14.886Z,1.45
2023-05-06T20:37:50.911Z,1.40
2023-05-06T20:40:17.900Z,0.93
2023-05-06T20:42:44.851Z,1.10
2023-05-06T20:45:12.304Z,1.02
2023-05-06T20:47:39.376Z,0.90
2023-05-06T20:50:06.768Z,0.90
2023-05-06T20:52:35.911Z,1.65
2023-05-06T20:55:02.995Z,1.40
2023-05-06T20:57:29.929Z,1.10
2023-05-06T20:59:57.006Z,1.10
2023-05-06T21:02:24.012Z,1.00
2023-05-06T21:04:50.960Z,0.95
2023-05-06T21:07:17.910Z,0.90
2023-05-06T21:09:44.790Z,0.90
2023-05-06T21:12:11.692Z,1.17
2023-05-06T21:14:38.624Z,1.10
2023-05-06T21:17:05.477Z,0.98
2023-05-06T21:19:32.327Z,1.10
2023-05-06T21:21:59.506Z,1.10
2023-05-06T21:24:26.411Z,1.10
2023-05-06T21:26:53.504Z,1.20
2023-05-06T21:29:20.456Z,1.00
2023-05-06T21:31:47.571Z,1.30
2023-05-06T21:34:14.535Z,1.23
2023-05-06T21:36:41.515Z,1.20
2023-05-06T21:39:13.161Z,1.03
2023-05-06T21:41:40.779Z,1.10
2023-05-06T21:44:10.797Z,1.08
2023-05-06T21:46:38.090Z,1.00
2023-05-06T21:49:05.097Z,0.88
2023-05-06T21:51:33.887Z,1.00
2023-05-06T21:54:01.036Z,1.00
2023-05-06T21:56:28.195Z,1.10
2023-05-06T21:58:55.431Z,1.10
2023-05-06T22:01:23.156Z,2.40
2023-05-06T22:03:50.212Z,1.87
2023-05-06T22:06:17.444Z,2.08
2023-05-06T22:08:44.365Z,5.38
2023-05-06T22:11:11.299Z,6.75
2023-05-06T22:13:38.219Z,3.58
2023-05-06T22:16:05.537Z,0.90
2023-05-06T22:18:32.471Z,2.75
2023-05-06T22:21:01.627Z,3.95
2023-05-06T22:23:28.438Z,2.15
2023-05-06T22:25:55.328Z,2.72
2023-05-06T22:28:22.275Z,3.13
2023-05-06T22:30:49.265Z,2.78
2023-05-06T22:33:16.156Z,2.15
2023-05-06T22:35:43.187Z,2.97
2023-05-06T22:38:11.881Z,1.50
2023-05-06T22:40:38.749Z,2.30
2023-05-06T22:43:05.665Z,2.70
2023-05-06T22:45:32.677Z,2.92
2023-05-06T22:47:59.627Z,1.95
2023-05-06T22:50:26.606Z,2.25
2023-05-06T22:52:53.450Z,2.70
2023-05-06T22:55:20.410Z,3.03
2023-05-06T22:57:47.549Z,1.40
2023-05-06T23:00:14.492Z,1.10
2023-05-06T23:02:41.432Z,1.20
2023-05-06T23:05:08.736Z,1.03
2023-05-06T23:07:36.965Z,1.10
2023-05-06T23:10:03.967Z,2.40
2023-05-06T23:12:35.275Z,4.10
2023-05-06T23:15:02.598Z,3.92
2023-05-06T23:17:29.465Z,2.83
2023-05-06T23:19:56.428Z,4.03
2023-05-06T23:22:23.263Z,2.92
2023-05-06T23:24:50.199Z,1.73
2023-05-06T23:27:17.125Z,2.08
2023-05-06T23:29:44.018Z,1.90
2023-05-06T23:32:10.858Z,1.50
2023-05-06T23:34:37.774Z,1.92
2023-05-06T23:37:04.621Z,2.50
2023-05-06T23:39:31.494Z,4.18
2023-05-06T23:41:58.394Z,4.60
2023-05-06T23:44:25.253Z,4.97
2023-05-06T23:46:52.181Z,4.32
2023-05-06T23:49:20.265Z,2.50
2023-05-06T23:51:47.240Z,2.42
2023-05-06T23:54:14.070Z,2.20
2023-05-06T23:56:40.951Z,2.30
2023-05-06T23:59:07.895Z,1.67
